sensor_id;sensor_type;location;lat;lon;timestamp;temperature;humidity
8888;DHT22;4480;52.370;9.748;2023-05-09T00:00:05;11.90;74.80
8888;DHT22;4480;52.370;9.748;2023-05-09T00:02:35;11.90;75.40
8888;DHT22;4480;52.370;9.748;2023-05-09T00:05:02;11.80;75.70
8888;DHT22;4480;52.370;9.748;2023-05-09T00:07:30;11.80;76.10
8888;DHT22;4480;52.370;9.748;2023-05-09T00:09:57;11.80;76.70
8888;DHT22;4480;52.370;9.748;2023-05-09T00:12:24;11.70;77.10
8888;DHT22;4480;52.370;9.748;2023-05-09T00:14:51;11.70;77.60
8888;DHT22;4480;52.370;9.748;2023-05-09T00:17:18;11.60;78.00
8888;DHT22;4480;52.370;9.748;2023-05-09T00:19:47;11.60;78.50
8888;DHT22;4480;52.370;9.748;2023-05-09T00:22:14;11.60;79.10
8888;DHT22;4480;52.370;9.748;2023-05-09T00:24:42;11.50;79.60
8888;DHT22;4480;52.370;9.748;2023-05-09T00:27:09;11.50;80.10
8888;DHT22;4480;52.370;9.748;2023-05-09T00:29:36;11.40;80.40
8888;DHT22;4480;52.370;9.748;2023-05-09T00:32:03;11.40;81.00
8888;DHT22;4480;52.370;9.748;2023-05-09T00:34:30;11.40;81.50
8888;DHT22;4480;52.370;9.748;2023-05-09T00:36:56;11.30;82.10
8888;DHT22;4480;52.370;9.748;2023-05-09T00:39:23;11.30;82.70
8888;DHT22;4480;52.370;9.748;2023-05-09T00:41:51;11.20;83.20
8888;DHT22;4480;52.370;9.748;2023-05-09T00:44:18;11.30;83.60
8888;DHT22;4480;52.370;9.748;2023-05-09T00:46:45;11.20;83.90
8888;DHT22;4480;52.370;9.748;2023-05-09T00:49:12;11.20;84.40
8888;DHT22;4480;52.370;9.748;2023-05-09T00:51:39;11.20;84.80
8888;DHT22;4480;52.370;9.748;2023-05-09T00:54:06;11.10;85.20
8888;DHT22;4480;52.370;9.748;2023-05-09T00:56:33;11.10;85.60
8888;DHT22;4480;52.370;9.748;2023-05-09T00:59:01;11.00;86.60
8888;DHT22;4480;52.370;9.748;2023-05-09T01:01:28;11.00;87.30
8888;DHT22;4480;52.370;9.748;2023-05-09T01:03:55;10.90;87.20
8888;DHT22;4480;52.370;9.748;2023-05-09T01:06:28;10.90;87.60
8888;DHT22;4480;52.370;9.748;2023-05-09T01:09:02;10.90;88.80
8888;DHT22;4480;52.370;9.748;2023-05-09T01:11:35;10.80;88.80
8888;DHT22;4480;52.370;9.748;2023-05-09T01:14:11;10.80;89.40
8888;DHT22;4480;52.370;9.748;2023-05-09T01:16:46;10.80;89.90
8888;DHT22;4480;52.370;9.748;2023-05-09T01:19:35;10.70;90.10
8888;DHT22;4480;52.370;9.748;2023-05-09T01:22:07;10.70;90.40
8888;DHT22;4480;52.370;9.748;2023-05-09T01:24:57;10.60;90.60
8888;DHT22;4480;52.370;9.748;2023-05-09T01:27:34;10.60;90.90
8888;DHT22;4480;52.370;9.748;2023-05-09T01:30:11;10.60;91.10
8888;DHT22;4480;52.370;9.748;2023-05-09T01:32:38;10.50;91.40
8888;DHT22;4480;52.370;9.748;2023-05-09T01:35:12;10.50;91.60
8888;DHT22;4480;52.370;9.748;2023-05-09T01:37:42;10.40;91.80
8888;DHT22;4480;52.370;9.748;2023-05-09T01:40:14;10.40;92.10
8888;DHT22;4480;52.370;9.748;2023-05-09T01:42:43;10.40;92.30
8888;DHT22;4480;52.370;9.748;2023-05-09T01:45:13;10.30;92.40
8888;DHT22;4480;52.370;9.748;2023-05-09T01:47:41;10.30;92.70
8888;DHT22;4480;52.370;9.748;2023-05-09T01:50:10;10.30;92.90
8888;DHT22;4480;52.370;9.748;2023-05-09T01:52:38;10.20;93.10
8888;DHT22;4480;52.370;9.748;2023-05-09T01:55:06;10.20;93.40
8888;DHT22;4480;52.370;9.748;2023-05-09T01:57:34;10.20;93.50
8888;DHT22;4480;52.370;9.748;2023-05-09T02:00:03;10.10;93.70
8888;DHT22;4480;52.370;9.748;2023-05-09T02:02:32;10.10;93.80
8888;DHT22;4480;52.370;9.748;2023-05-09T02:04:59;10.10;94.30
8888;DHT22;4480;52.370;9.748;2023-05-09T02:07:28;10.10;94.20
8888;DHT22;4480;52.370;9.748;2023-05-09T02:09:57;10.00;94.60
8888;DHT22;4480;52.370;9.748;2023-05-09T02:12:24;10.00;94.50
8888;DHT22;4480;52.370;9.748;2023-05-09T02:14:51;10.00;94.70
8888;DHT22;4480;52.370;9.748;2023-05-09T02:17:18;9.90;95.30
8888;DHT22;4480;52.370;9.748;2023-05-09T02:19:47;9.90;95.50
8888;DHT22;4480;52.370;9.748;2023-05-09T02:22:14;9.90;95.70
8888;DHT22;4480;52.370;9.748;2023-05-09T02:24:42;9.90;96.10
8888;DHT22;4480;52.370;9.748;2023-05-09T02:27:09;9.80;96.10
8888;DHT22;4480;52.370;9.748;2023-05-09T02:29:41;9.80;96.30
8888;DHT22;4480;52.370;9.748;2023-05-09T02:32:11;9.80;96.60
8888;DHT22;4480;52.370;9.748;2023-05-09T02:34:40;9.80;96.70
8888;DHT22;4480;52.370;9.748;2023-05-09T02:37:09;9.70;96.90
8888;DHT22;4480;52.370;9.748;2023-05-09T02:39:36;9.70;97.20
8888;DHT22;4480;52.370;9.748;2023-05-09T02:42:07;9.70;97.40
8888;DHT22;4480;52.370;9.748;2023-05-09T02:44:34;9.70;97.50
8888;DHT22;4480;52.370;9.748;2023-05-09T02:47:01;9.60;97.60
8888;DHT22;4480;52.370;9.748;2023-05-09T02:49:28;9.60;97.90
8888;DHT22;4480;52.370;9.748;2023-05-09T02:51:55;9.60;98.00
8888;DHT22;4480;52.370;9.748;2023-05-09T02:54:23;9.50;98.20
8888;DHT22;4480;52.370;9.748;2023-05-09T02:56:50;9.50;98.40
8888;DHT22;4480;52.370;9.748;2023-05-09T02:59:17;9.50;98.50
8888;DHT22;4480;52.370;9.748;2023-05-09T03:01:44;9.50;98.70
8888;DHT22;4480;52.370;9.748;2023-05-09T03:04:11;9.50;98.80
8888;DHT22;4480;52.370;9.748;2023-05-09T03:06:37;9.50;99.00
8888;DHT22;4480;52.370;9.748;2023-05-09T03:09:04;9.50;99.10
8888;DHT22;4480;52.370;9.748;2023-05-09T03:11:33;9.50;99.10
8888;DHT22;4480;52.370;9.748;2023-05-09T03:14:01;9.50;99.20
8888;DHT22;4480;52.370;9.748;2023-05-09T03:16:27;9.50;99.20
8888;DHT22;4480;52.370;9.748;2023-05-09T03:18:54;9.50;99.30
8888;DHT22;4480;52.370;9.748;2023-05-09T03:21:21;9.50;99.50
8888;DHT22;4480;52.370;9.748;2023-05-09T03:23:47;9.50;99.70
8888;DHT22;4480;52.370;9.748;2023-05-09T03:26:14;9.50;99.80
8888;DHT22;4480;52.370;9.748;2023-05-09T03:28:42;9.40;99.80
8888;DHT22;4480;52.370;9.748;2023-05-09T03:31:09;9.40;99.90
8888;DHT22;4480;52.370;9.748;2023-05-09T03:33:36;9.40;99.90
8888;DHT22;4480;52.370;9.748;2023-05-09T03:36:03;9.40;99.90
8888;DHT22;4480;52.370;9.748;2023-05-09T03:38:30;9.40;99.90
8888;DHT22;4480;52.370;9.748;2023-05-09T03:40:57;9.40;99.90
8888;DHT22;4480;52.370;9.748;2023-05-09T03:43:24;9.30;99.90
8888;DHT22;4480;52.370;9.748;2023-05-09T03:45:52;9.30;99.90
8888;DHT22;4480;52.370;9.748;2023-05-09T03:48:18;9.30;99.90
8888;DHT22;4480;52.370;9.748;2023-05-09T03:50:45;9.30;99.90
8888;DHT22;4480;52.370;9.748;2023-05-09T03:53:12;9.30;99.90
8888;DHT22;4480;52.370;9.748;2023-05-09T03:55:38;9.30;99.90
8888;DHT22;4480;52.370;9.748;2023-05-09T03:58:05;9.30;99.90
8888;DHT22;4480;52.370;9.748;2023-05-09T04:00:32;9.20;99.90
8888;DHT22;4480;52.370;9.748;2023-05-09T04:03:00;9.30;99.90
8888;DHT22;4480;52.370;9.748;2023-05-09T04:05:27;9.30;99.90
8888;DHT22;4480;52.370;9.748;2023-05-09T04:07:54;9.30;99.90
8888;DHT22;4480;52.370;9.748;2023-05-09T04:11:39;9.30;99.90
8888;DHT22;4480;52.370;9.748;2023-05-09T04:14:06;9.40;99.90
8888;DHT22;4480;52.370;9.748;2023-05-09T04:16:32;9.50;99.90
8888;DHT22;4480;52.370;9.748;2023-05-09T04:18:59;9.60;99.90
8888;DHT22;4480;52.370;9.748;2023-05-09T04:21:27;9.80;99.90
8888;DHT22;4480;52.370;9.748;2023-05-09T04:23:53;10.10;99.90
8888;DHT22;4480;52.370;9.748;2023-05-09T04:26:20;10.40;99.90
8888;DHT22;4480;52.370;9.748;2023-05-09T04:28:48;10.70;99.90
8888;DHT22;4480;52.370;9.748;2023-05-09T04:31:17;10.90;99.60
8888;DHT22;4480;52.370;9.748;2023-05-09T04:33:44;11.10;98.80
8888;DHT22;4480;52.370;9.748;2023-05-09T04:36:10;11.40;98.20
8888;DHT22;4480;52.370;9.748;2023-05-09T04:38:37;11.60;97.50
8888;DHT22;4480;52.370;9.748;2023-05-09T04:41:04;11.80;96.50
8888;DHT22;4480;52.370;9.748;2023-05-09T04:43:32;12.00;95.90
8888;DHT22;4480;52.370;9.748;2023-05-09T04:46:00;12.20;95.20
8888;DHT22;4480;52.370;9.748;2023-05-09T04:48:27;12.40;94.10
8888;DHT22;4480;52.370;9.748;2023-05-09T04:50:53;12.60;93.60
8888;DHT22;4480;52.370;9.748;2023-05-09T04:53:20;12.70;92.60
8888;DHT22;4480;52.370;9.748;2023-05-09T04:55:47;12.90;91.80
8888;DHT22;4480;52.370;9.748;2023-05-09T04:58:14;12.90;91.10
8888;DHT22;4480;52.370;9.748;2023-05-09T05:00:40;13.00;90.60
8888;DHT22;4480;52.370;9.748;2023-05-09T05:03:08;13.10;90.30
8888;DHT22;4480;52.370;9.748;2023-05-09T05:05:35;13.20;88.90
8888;DHT22;4480;52.370;9.748;2023-05-09T05:08:02;13.30;88.00
8888;DHT22;4480;52.370;9.748;2023-05-09T05:10:29;13.40;86.50
8888;DHT22;4480;52.370;9.748;2023-05-09T05:12:55;13.60;85.10
8888;DHT22;4480;52.370;9.748;2023-05-09T05:15:22;13.70;83.80
8888;DHT22;4480;52.370;9.748;2023-05-09T05:17:51;13.80;82.50
8888;DHT22;4480;52.370;9.748;2023-05-09T05:20:19;13.90;81.00
8888;DHT22;4480;52.370;9.748;2023-05-09T05:22:46;14.00;79.90
8888;DHT22;4480;52.370;9.748;2023-05-09T05:25:12;14.10;78.60
8888;DHT22;4480;52.370;9.748;2023-05-09T05:27:39;14.10;77.80
8888;DHT22;4480;52.370;9.748;2023-05-09T05:30:07;14.20;76.70
8888;DHT22;4480;52.370;9.748;2023-05-09T05:32:34;14.20;75.50
8888;DHT22;4480;52.370;9.748;2023-05-09T05:35:00;14.20;74.90
8888;DHT22;4480;52.370;9.748;2023-05-09T05:37:30;14.10;75.10
8888;DHT22;4480;52.370;9.748;2023-05-09T05:39:57;14.10;75.00
8888;DHT22;4480;52.370;9.748;2023-05-09T05:42:24;14.10;74.50
8888;DHT22;4480;52.370;9.748;2023-05-09T05:44:50;14.10;74.50
8888;DHT22;4480;52.370;9.748;2023-05-09T05:47:17;14.00;74.70
8888;DHT22;4480;52.370;9.748;2023-05-09T05:49:44;13.90;75.10
8888;DHT22;4480;52.370;9.748;2023-05-09T05:52:11;13.90;75.10
8888;DHT22;4480;52.370;9.748;2023-05-09T05:54:39;13.90;75.20
8888;DHT22;4480;52.370;9.748;2023-05-09T05:57:06;13.90;75.10
8888;DHT22;4480;52.370;9.748;2023-05-09T05:59:33;14.00;75.40
8888;DHT22;4480;52.370;9.748;2023-05-09T06:01:59;14.10;75.00
8888;DHT22;4480;52.370;9.748;2023-05-09T06:04:26;14.10;74.10
8888;DHT22;4480;52.370;9.748;2023-05-09T06:06:53;14.10;73.60
8888;DHT22;4480;52.370;9.748;2023-05-09T06:09:20;14.10;73.20
8888;DHT22;4480;52.370;9.748;2023-05-09T06:11:48;14.10;72.90
8888;DHT22;4480;52.370;9.748;2023-05-09T06:14:15;14.10;72.90
8888;DHT22;4480;52.370;9.748;2023-05-09T06:16:41;14.10;73.20
8888;DHT22;4480;52.370;9.748;2023-05-09T06:19:08;14.20;72.20
8888;DHT22;4480;52.370;9.748;2023-05-09T06:21:35;14.20;71.80
8888;DHT22;4480;52.370;9.748;2023-05-09T06:24:02;14.30;71.60
8888;DHT22;4480;52.370;9.748;2023-05-09T06:26:29;14.40;71.30
8888;DHT22;4480;52.370;9.748;2023-05-09T06:28:57;14.50;70.70
8888;DHT22;4480;52.370;9.748;2023-05-09T06:31:24;14.70;70.40
8888;DHT22;4480;52.370;9.748;2023-05-09T06:33:51;14.90;69.80
8888;DHT22;4480;52.370;9.748;2023-05-09T06:36:18;15.00;69.00
8888;DHT22;4480;52.370;9.748;2023-05-09T06:38:44;15.10;68.50
8888;DHT22;4480;52.370;9.748;2023-05-09T06:41:11;15.20;68.20
8888;DHT22;4480;52.370;9.748;2023-05-09T06:43:38;15.30;67.90
8888;DHT22;4480;52.370;9.748;2023-05-09T06:46:06;15.30;67.30
8888;DHT22;4480;52.370;9.748;2023-05-09T06:48:33;15.40;67.10
8888;DHT22;4480;52.370;9.748;2023-05-09T06:51:00;15.50;66.80
8888;DHT22;4480;52.370;9.748;2023-05-09T06:53:27;15.60;66.60
8888;DHT22;4480;52.370;9.748;2023-05-09T06:55:53;15.70;66.20
8888;DHT22;4480;52.370;9.748;2023-05-09T06:58:20;15.90;65.70
8888;DHT22;4480;52.370;9.748;2023-05-09T07:00:47;16.00;65.00
8888;DHT22;4480;52.370;9.748;2023-05-09T07:03:15;16.10;64.40
8888;DHT22;4480;52.370;9.748;2023-05-09T07:05:42;16.20;64.10
8888;DHT22;4480;52.370;9.748;2023-05-09T07:08:09;16.30;63.90
8888;DHT22;4480;52.370;9.748;2023-05-09T07:10:35;16.40;63.30
8888;DHT22;4480;52.370;9.748;2023-05-09T07:13:03;16.60;62.80
8888;DHT22;4480;52.370;9.748;2023-05-09T07:15:30;16.70;62.20
8888;DHT22;4480;52.370;9.748;2023-05-09T07:17:56;16.80;61.50
8888;DHT22;4480;52.370;9.748;2023-05-09T07:20:24;16.90;61.20
8888;DHT22;4480;52.370;9.748;2023-05-09T07:22:51;17.00;61.00
8888;DHT22;4480;52.370;9.748;2023-05-09T07:25:18;17.10;60.70
8888;DHT22;4480;52.370;9.748;2023-05-09T07:27:45;17.10;60.30
8888;DHT22;4480;52.370;9.748;2023-05-09T07:30:12;17.20;60.30
8888;DHT22;4480;52.370;9.748;2023-05-09T07:32:39;17.30;60.10
8888;DHT22;4480;52.370;9.748;2023-05-09T07:35:06;17.40;59.90
8888;DHT22;4480;52.370;9.748;2023-05-09T07:37:34;17.40;59.80
8888;DHT22;4480;52.370;9.748;2023-05-09T07:40:01;17.50;59.60
8888;DHT22;4480;52.370;9.748;2023-05-09T07:42:30;17.60;59.30
8888;DHT22;4480;52.370;9.748;2023-05-09T07:44:57;17.70;59.10
8888;DHT22;4480;52.370;9.748;2023-05-09T07:47:24;17.80;58.80
8888;DHT22;4480;52.370;9.748;2023-05-09T07:49:51;17.90;58.40
8888;DHT22;4480;52.370;9.748;2023-05-09T07:52:18;18.00;58.10
8888;DHT22;4480;52.370;9.748;2023-05-09T07:54:46;18.20;58.10
8888;DHT22;4480;52.370;9.748;2023-05-09T07:57:13;18.30;57.70
8888;DHT22;4480;52.370;9.748;2023-05-09T07:59:40;18.30;57.40
8888;DHT22;4480;52.370;9.748;2023-05-09T08:02:07;18.40;57.30
8888;DHT22;4480;52.370;9.748;2023-05-09T08:04:34;18.40;57.20
8888;DHT22;4480;52.370;9.748;2023-05-09T08:07:02;18.50;57.10
8888;DHT22;4480;52.370;9.748;2023-05-09T08:09:29;18.70;56.90
8888;DHT22;4480;52.370;9.748;2023-05-09T08:11:57;18.80;56.40
8888;DHT22;4480;52.370;9.748;2023-05-09T08:14:24;18.90;56.10
8888;DHT22;4480;52.370;9.748;2023-05-09T08:16:51;19.00;55.80
8888;DHT22;4480;52.370;9.748;2023-05-09T08:19:17;19.10;55.50
8888;DHT22;4480;52.370;9.748;2023-05-09T08:21:45;19.20;55.10
8888;DHT22;4480;52.370;9.748;2023-05-09T08:24:12;19.40;54.80
8888;DHT22;4480;52.370;9.748;2023-05-09T08:26:38;19.60;54.40
8888;DHT22;4480;52.370;9.748;2023-05-09T08:29:07;19.80;54.70
8888;DHT22;4480;52.370;9.748;2023-05-09T08:31:33;19.80;53.60
8888;DHT22;4480;52.370;9.748;2023-05-09T08:34:00;20.00;53.30
8888;DHT22;4480;52.370;9.748;2023-05-09T08:36:27;20.10;53.10
8888;DHT22;4480;52.370;9.748;2023-05-09T08:38:54;20.30;52.90
8888;DHT22;4480;52.370;9.748;2023-05-09T08:41:24;20.40;52.60
8888;DHT22;4480;52.370;9.748;2023-05-09T08:43:52;20.50;52.50
8888;DHT22;4480;52.370;9.748;2023-05-09T08:46:27;20.60;52.20
8888;DHT22;4480;52.370;9.748;2023-05-09T08:48:57;20.80;52.00
8888;DHT22;4480;52.370;9.748;2023-05-09T08:51:24;20.90;51.80
8888;DHT22;4480;52.370;9.748;2023-05-09T08:53:51;20.90;51.60
8888;DHT22;4480;52.370;9.748;2023-05-09T08:56:18;21.00;51.50
8888;DHT22;4480;52.370;9.748;2023-05-09T08:58:45;21.10;51.40
8888;DHT22;4480;52.370;9.748;2023-05-09T09:01:13;21.10;51.30
8888;DHT22;4480;52.370;9.748;2023-05-09T09:03:41;21.20;51.10
8888;DHT22;4480;52.370;9.748;2023-05-09T09:06:12;21.30;50.90
8888;DHT22;4480;52.370;9.748;2023-05-09T09:08:39;21.40;50.50
8888;DHT22;4480;52.370;9.748;2023-05-09T09:11:06;21.50;50.40
8888;DHT22;4480;52.370;9.748;2023-05-09T09:13:37;21.50;50.20
8888;DHT22;4480;52.370;9.748;2023-05-09T09:16:07;21.70;50.00
8888;DHT22;4480;52.370;9.748;2023-05-09T09:18:35;21.80;49.50
8888;DHT22;4480;52.370;9.748;2023-05-09T09:21:05;21.90;49.10
8888;DHT22;4480;52.370;9.748;2023-05-09T09:23:33;22.00;49.00
8888;DHT22;4480;52.370;9.748;2023-05-09T09:26:01;22.10;48.60
8888;DHT22;4480;52.370;9.748;2023-05-09T09:28:29;22.20;48.40
8888;DHT22;4480;52.370;9.748;2023-05-09T09:30:56;22.30;48.40
8888;DHT22;4480;52.370;9.748;2023-05-09T09:33:24;22.40;48.20
8888;DHT22;4480;52.370;9.748;2023-05-09T09:35:52;22.40;48.00
8888;DHT22;4480;52.370;9.748;2023-05-09T09:38:22;22.40;48.10
8888;DHT22;4480;52.370;9.748;2023-05-09T09:40:52;22.40;48.00
8888;DHT22;4480;52.370;9.748;2023-05-09T09:43:25;22.50;48.00
8888;DHT22;4480;52.370;9.748;2023-05-09T09:45:52;22.50;47.70
8888;DHT22;4480;52.370;9.748;2023-05-09T09:48:23;22.50;47.50
8888;DHT22;4480;52.370;9.748;2023-05-09T09:50:50;22.60;47.40
8888;DHT22;4480;52.370;9.748;2023-05-09T09:53:20;22.70;47.20
8888;DHT22;4480;52.370;9.748;2023-05-09T09:55:49;22.70;46.90
8888;DHT22;4480;52.370;9.748;2023-05-09T09:58:16;22.70;46.60
8888;DHT22;4480;52.370;9.748;2023-05-09T10:00:43;22.70;46.50
8888;DHT22;4480;52.370;9.748;2023-05-09T10:03:14;22.70;46.50
8888;DHT22;4480;52.370;9.748;2023-05-09T10:05:41;22.60;46.20
8888;DHT22;4480;52.370;9.748;2023-05-09T10:08:08;22.60;46.20
8888;DHT22;4480;52.370;9.748;2023-05-09T10:10:36;22.70;46.30
8888;DHT22;4480;52.370;9.748;2023-05-09T10:13:05;22.80;46.20
8888;DHT22;4480;52.370;9.748;2023-05-09T10:15:34;22.90;46.00
8888;DHT22;4480;52.370;9.748;2023-05-09T10:18:01;23.00;45.90
8888;DHT22;4480;52.370;9.748;2023-05-09T10:20:30;23.20;45.80
8888;DHT22;4480;52.370;9.748;2023-05-09T10:23:01;23.40;45.50
8888;DHT22;4480;52.370;9.748;2023-05-09T10:25:37;23.40;45.30
8888;DHT22;4480;52.370;9.748;2023-05-09T10:28:08;23.40;45.10
8888;DHT22;4480;52.370;9.748;2023-05-09T10:30:43;23.40;44.90
8888;DHT22;4480;52.370;9.748;2023-05-09T10:33:15;23.50;45.10
8888;DHT22;4480;52.370;9.748;2023-05-09T10:35:46;23.70;45.10
8888;DHT22;4480;52.370;9.748;2023-05-09T10:38:13;23.80;44.80
8888;DHT22;4480;52.370;9.748;2023-05-09T10:40:46;23.90;44.50
8888;DHT22;4480;52.370;9.748;2023-05-09T10:43:13;24.00;44.40
8888;DHT22;4480;52.370;9.748;2023-05-09T10:45:40;24.00;44.30
8888;DHT22;4480;52.370;9.748;2023-05-09T10:48:08;23.90;44.10
8888;DHT22;4480;52.370;9.748;2023-05-09T10:50:36;23.80;44.20
8888;DHT22;4480;52.370;9.748;2023-05-09T10:53:09;23.80;44.30
8888;DHT22;4480;52.370;9.748;2023-05-09T10:55:49;23.80;44.50
8888;DHT22;4480;52.370;9.748;2023-05-09T10:58:21;23.90;44.40
8888;DHT22;4480;52.370;9.748;2023-05-09T11:00:48;24.10;44.10
8888;DHT22;4480;52.370;9.748;2023-05-09T11:03:16;24.20;43.80
8888;DHT22;4480;52.370;9.748;2023-05-09T11:05:44;24.20;43.70
8888;DHT22;4480;52.370;9.748;2023-05-09T11:08:22;24.20;43.80
8888;DHT22;4480;52.370;9.748;2023-05-09T11:10:51;24.30;43.70
8888;DHT22;4480;52.370;9.748;2023-05-09T11:13:20;24.50;43.50
8888;DHT22;4480;52.370;9.748;2023-05-09T11:16:05;24.70;43.20
8888;DHT22;4480;52.370;9.748;2023-05-09T11:18:33;24.80;43.00
8888;DHT22;4480;52.370;9.748;2023-05-09T11:21:07;24.80;43.00
8888;DHT22;4480;52.370;9.748;2023-05-09T11:23:34;24.90;43.00
8888;DHT22;4480;52.370;9.748;2023-05-09T11:26:06;25.00;42.90
8888;DHT22;4480;52.370;9.748;2023-05-09T11:28:35;25.10;42.70
8888;DHT22;4480;52.370;9.748;2023-05-09T11:31:08;25.00;42.70
8888;DHT22;4480;52.370;9.748;2023-05-09T11:33:36;25.00;42.70
8888;DHT22;4480;52.370;9.748;2023-05-09T11:36:17;24.90;42.70
8888;DHT22;4480;52.370;9.748;2023-05-09T11:38:45;24.70;42.80
8888;DHT22;4480;52.370;9.748;2023-05-09T11:41:14;24.70;43.00
8888;DHT22;4480;52.370;9.748;2023-05-09T11:43:42;24.90;43.00
8888;DHT22;4480;52.370;9.748;2023-05-09T11:46:10;25.10;42.80
8888;DHT22;4480;52.370;9.748;2023-05-09T11:48:37;25.30;42.30
8888;DHT22;4480;52.370;9.748;2023-05-09T11:51:05;25.60;41.90
8888;DHT22;4480;52.370;9.748;2023-05-09T11:53:32;25.90;41.30
8888;DHT22;4480;52.370;9.748;2023-05-09T11:56:01;25.80;41.20
8888;DHT22;4480;52.370;9.748;2023-05-09T11:58:30;25.90;41.00
8888;DHT22;4480;52.370;9.748;2023-05-09T12:00:57;26.10;40.90
8888;DHT22;4480;52.370;9.748;2023-05-09T12:03:24;26.40;40.70
8888;DHT22;4480;52.370;9.748;2023-05-09T12:05:53;26.70;40.30
8888;DHT22;4480;52.370;9.748;2023-05-09T12:08:20;26.80;39.80
8888;DHT22;4480;52.370;9.748;2023-05-09T12:10:48;26.70;39.50
8888;DHT22;4480;52.370;9.748;2023-05-09T12:13:16;26.60;39.80
8888;DHT22;4480;52.370;9.748;2023-05-09T12:15:45;26.70;39.90
8888;DHT22;4480;52.370;9.748;2023-05-09T12:18:11;26.50;39.90
8888;DHT22;4480;52.370;9.748;2023-05-09T12:20:40;26.40;40.20
8888;DHT22;4480;52.370;9.748;2023-05-09T12:23:08;26.40;40.40
8888;DHT22;4480;52.370;9.748;2023-05-09T12:25:35;26.50;40.50
8888;DHT22;4480;52.370;9.748;2023-05-09T12:28:02;26.40;40.40
8888;DHT22;4480;52.370;9.748;2023-05-09T12:30:29;26.30;40.60
8888;DHT22;4480;52.370;9.748;2023-05-09T12:32:58;26.30;40.80
8888;DHT22;4480;52.370;9.748;2023-05-09T12:35:25;26.10;41.00
8888;DHT22;4480;52.370;9.748;2023-05-09T12:37:55;26.00;41.50
8888;DHT22;4480;52.370;9.748;2023-05-09T12:40:24;25.90;41.60
8888;DHT22;4480;52.370;9.748;2023-05-09T12:42:50;26.10;41.60
8888;DHT22;4480;52.370;9.748;2023-05-09T12:45:21;26.20;41.40
8888;DHT22;4480;52.370;9.748;2023-05-09T12:47:50;26.10;41.40
8888;DHT22;4480;52.370;9.748;2023-05-09T12:50:18;26.00;41.50
8888;DHT22;4480;52.370;9.748;2023-05-09T12:52:50;25.80;41.80
8888;DHT22;4480;52.370;9.748;2023-05-09T12:55:18;25.70;41.90
8888;DHT22;4480;52.370;9.748;2023-05-09T12:57:57;25.50;42.20
8888;DHT22;4480;52.370;9.748;2023-05-09T13:00:24;25.30;42.40
8888;DHT22;4480;52.370;9.748;2023-05-09T13:02:51;25.10;42.70
8888;DHT22;4480;52.370;9.748;2023-05-09T13:05:20;24.80;43.00
8888;DHT22;4480;52.370;9.748;2023-05-09T13:07:49;24.70;43.20
8888;DHT22;4480;52.370;9.748;2023-05-09T13:10:18;24.60;43.40
8888;DHT22;4480;52.370;9.748;2023-05-09T13:12:46;24.60;43.60
8888;DHT22;4480;52.370;9.748;2023-05-09T13:15:14;24.50;43.70
8888;DHT22;4480;52.370;9.748;2023-05-09T13:17:41;24.50;43.90
8888;DHT22;4480;52.370;9.748;2023-05-09T13:20:08;24.50;44.00
8888;DHT22;4480;52.370;9.748;2023-05-09T13:22:36;24.50;44.10
8888;DHT22;4480;52.370;9.748;2023-05-09T13:25:03;24.50;44.10
8888;DHT22;4480;52.370;9.748;2023-05-09T13:27:31;24.50;44.70
8888;DHT22;4480;52.370;9.748;2023-05-09T13:29:57;24.40;44.20
8888;DHT22;4480;52.370;9.748;2023-05-09T13:32:24;24.30;44.30
8888;DHT22;4480;52.370;9.748;2023-05-09T13:34:51;24.20;44.40
8888;DHT22;4480;52.370;9.748;2023-05-09T13:37:18;24.10;44.50
8888;DHT22;4480;52.370;9.748;2023-05-09T13:39:47;24.10;44.60
8888;DHT22;4480;52.370;9.748;2023-05-09T13:42:14;24.10;44.70
8888;DHT22;4480;52.370;9.748;2023-05-09T13:44:41;24.20;44.80
8888;DHT22;4480;52.370;9.748;2023-05-09T13:47:07;24.30;44.70
8888;DHT22;4480;52.370;9.748;2023-05-09T13:49:35;24.40;44.60
8888;DHT22;4480;52.370;9.748;2023-05-09T13:52:03;24.50;44.70
8888;DHT22;4480;52.370;9.748;2023-05-09T13:54:29;24.60;44.70
8888;DHT22;4480;52.370;9.748;2023-05-09T13:57:01;24.70;44.60
8888;DHT22;4480;52.370;9.748;2023-05-09T13:59:28;24.80;44.60
8888;DHT22;4480;52.370;9.748;2023-05-09T14:01:56;24.90;44.50
8888;DHT22;4480;52.370;9.748;2023-05-09T14:04:24;25.10;44.30
8888;DHT22;4480;52.370;9.748;2023-05-09T14:06:51;25.10;44.10
8888;DHT22;4480;52.370;9.748;2023-05-09T14:09:17;24.90;44.10
8888;DHT22;4480;52.370;9.748;2023-05-09T14:11:46;24.80;44.40
8888;DHT22;4480;52.370;9.748;2023-05-09T14:14:14;24.60;44.60
8888;DHT22;4480;52.370;9.748;2023-05-09T14:16:41;24.50;44.80
8888;DHT22;4480;52.370;9.748;2023-05-09T14:19:08;24.50;45.10
8888;DHT22;4480;52.370;9.748;2023-05-09T14:21:35;24.40;45.10
8888;DHT22;4480;52.370;9.748;2023-05-09T14:24:02;24.50;45.20
8888;DHT22;4480;52.370;9.748;2023-05-09T14:26:29;24.50;45.10
8888;DHT22;4480;52.370;9.748;2023-05-09T14:28:56;24.70;45.60
8888;DHT22;4480;52.370;9.748;2023-05-09T14:31:24;24.80;45.10
8888;DHT22;4480;52.370;9.748;2023-05-09T14:33:51;24.90;44.90
8888;DHT22;4480;52.370;9.748;2023-05-09T14:36:17;24.90;44.90
8888;DHT22;4480;52.370;9.748;2023-05-09T14:38:44;24.70;44.90
8888;DHT22;4480;52.370;9.748;2023-05-09T14:41:12;24.60;45.10
8888;DHT22;4480;52.370;9.748;2023-05-09T14:43:40;24.50;45.20
8888;DHT22;4480;52.370;9.748;2023-05-09T14:46:06;24.60;45.30
8888;DHT22;4480;52.370;9.748;2023-05-09T14:48:34;24.70;45.20
8888;DHT22;4480;52.370;9.748;2023-05-09T14:51:01;24.50;45.10
8888;DHT22;4480;52.370;9.748;2023-05-09T14:53:29;24.50;45.40
8888;DHT22;4480;52.370;9.748;2023-05-09T14:55:56;24.40;45.40
8888;DHT22;4480;52.370;9.748;2023-05-09T14:58:22;24.40;45.40
8888;DHT22;4480;52.370;9.748;2023-05-09T15:00:49;24.40;45.40
8888;DHT22;4480;52.370;9.748;2023-05-09T15:03:17;24.60;45.40
8888;DHT22;4480;52.370;9.748;2023-05-09T15:05:45;24.60;45.30
8888;DHT22;4480;52.370;9.748;2023-05-09T15:08:12;24.50;45.20
8888;DHT22;4480;52.370;9.748;2023-05-09T15:10:39;24.40;45.40
8888;DHT22;4480;52.370;9.748;2023-05-09T15:13:05;24.20;45.50
8888;DHT22;4480;52.370;9.748;2023-05-09T15:15:32;24.00;45.70
8888;DHT22;4480;52.370;9.748;2023-05-09T15:17:59;23.80;46.10
8888;DHT22;4480;52.370;9.748;2023-05-09T15:20:27;23.70;46.50
8888;DHT22;4480;52.370;9.748;2023-05-09T15:22:55;23.60;46.70
8888;DHT22;4480;52.370;9.748;2023-05-09T15:25:21;23.50;46.70
8888;DHT22;4480;52.370;9.748;2023-05-09T15:27:48;23.40;46.90
8888;DHT22;4480;52.370;9.748;2023-05-09T15:30:15;23.40;47.10
8888;DHT22;4480;52.370;9.748;2023-05-09T15:32:42;23.30;47.00
8888;DHT22;4480;52.370;9.748;2023-05-09T15:35:09;23.30;47.20
8888;DHT22;4480;52.370;9.748;2023-05-09T15:37:36;23.20;47.20
8888;DHT22;4480;52.370;9.748;2023-05-09T15:40:05;23.20;47.30
8888;DHT22;4480;52.370;9.748;2023-05-09T15:42:33;23.20;47.30
8888;DHT22;4480;52.370;9.748;2023-05-09T15:44:59;23.20;47.30
8888;DHT22;4480;52.370;9.748;2023-05-09T15:47:27;23.30;47.20
8888;DHT22;4480;52.370;9.748;2023-05-09T15:49:54;23.30;46.90
8888;DHT22;4480;52.370;9.748;2023-05-09T15:52:21;23.40;46.80
8888;DHT22;4480;52.370;9.748;2023-05-09T15:54:48;23.30;46.70
8888;DHT22;4480;52.370;9.748;2023-05-09T15:57:16;23.30;46.80
8888;DHT22;4480;52.370;9.748;2023-05-09T15:59:42;23.20;46.80
8888;DHT22;4480;52.370;9.748;2023-05-09T16:02:09;23.20;46.80
8888;DHT22;4480;52.370;9.748;2023-05-09T16:04:36;23.10;46.70
8888;DHT22;4480;52.370;9.748;2023-05-09T16:07:04;23.10;46.50
8888;DHT22;4480;52.370;9.748;2023-05-09T16:09:30;22.90;46.40